Time;durP1;ratioP1;P1;durP2;ratioP2;P2;SDS_P1;SDS_P2;PMS_P1;PMS_P2;Temp;Humidity;BMP_temperature;BMP_pressure;BME280_temperature;BME280_humidity;BME280_pressure;Samples;Min_cycle;Max_cycle;Signal;HPM_P1;HPM_P2
2021/12/12 00:01:44;;;;;;;11.98;4.05;;;6.60;58.20;;;;;;6112631;23;20013;-54
2021/12/12 00:04:15;;;;;;;10.32;3.25;;;6.60;58.10;;;;;;6115546;23;20335;-53
2021/12/12 00:06:55;;;;;;;13.75;4.15;;;6.60;58.20;;;;;;6115608;23;20002;-55
2021/12/12 00:09:23;;;;;;;13.80;4.50;;;6.50;58.10;;;;;;6139008;23;20021;-54
2021/12/12 00:11:50;;;;;;;11.50;3.97;;;6.50;58.20;;;;;;6118500;23;20036;-53
2021/12/12 00:14:25;;;;;;;11.05;3.85;;;6.50;58.20;;;;;;6114774;23;20384;-55
2021/12/12 00:16:54;;;;;;;15.43;4.68;;;6.50;58.20;;;;;;6113306;23;20009;-55
2021/12/12 00:19:21;;;;;;;9.52;4.03;;;6.50;58.30;;;;;;6116380;23;20010;-55
2021/12/12 00:21:52;;;;;;;13.13;4.95;;;6.50;58.40;;;;;;6115609;23;20002;-53
2021/12/12 00:24:18;;;;;;;11.25;4.57;;;6.50;58.40;;;;;;6117042;23;19994;-55
2021/12/12 00:26:49;;;;;;;9.82;4.28;;;6.50;58.40;;;;;;6114044;23;20006;-57
2021/12/12 00:29:18;;;;;;;14.02;5.00;;;6.50;58.50;;;;;;6125010;23;19998;-57
2021/12/12 00:31:46;;;;;;;11.30;4.63;;;6.50;58.50;;;;;;6115139;23;20049;-52
2021/12/12 00:34:13;;;;;;;10.13;4.47;;;6.50;58.50;;;;;;6115801;23;20006;-54
2021/12/12 00:36:41;;;;;;;11.68;4.03;;;6.50;58.50;;;;;;6118213;23;20024;-55
2021/12/12 00:39:17;;;;;;;7.80;4.20;;;6.50;58.50;;;;;;6115322;23;20319;-57
2021/12/12 00:41:54;;;;;;;15.85;4.30;;;6.50;58.50;;;;;;6124610;23;20690;-50
2021/12/12 00:44:21;;;;;;;14.07;4.43;;;6.50;58.50;;;;;;6112217;23;20276;-54
2021/12/12 00:46:49;;;;;;;16.77;4.50;;;6.50;58.50;;;;;;6095022;23;20009;-57
2021/12/12 00:49:18;;;;;;;10.30;4.57;;;6.50;58.40;;;;;;6108208;23;20002;-53
2021/12/12 00:51:45;;;;;;;12.15;4.80;;;6.50;58.50;;;;;;6116767;23;20005;-54
2021/12/12 00:54:13;;;;;;;14.77;4.82;;;6.50;58.60;;;;;;6116577;23;19998;-57
2021/12/12 00:56:40;;;;;;;13.43;4.93;;;6.50;58.60;;;;;;6116081;23;20002;-53
2021/12/12 00:59:08;;;;;;;13.07;5.43;;;6.50;58.60;;;;;;6111314;23;19998;-57
2021/12/12 01:01:39;;;;;;;11.68;4.53;;;6.50;58.60;;;;;;6112634;23;20002;-54
2021/12/12 01:04:11;;;;;;;12.07;5.22;;;6.50;58.60;;;;;;6127056;23;19994;-55
2021/12/12 01:06:38;;;;;;;14.43;4.72;;;6.50;58.70;;;;;;6113009;23;20013;-55
2021/12/12 01:09:10;;;;;;;13.35;5.50;;;6.50;58.80;;;;;;6114724;23;20028;-55
2021/12/12 01:11:41;;;;;;;14.93;5.03;;;6.50;58.80;;;;;;6124759;23;20331;-55
2021/12/12 01:14:11;;;;;;;12.95;5.07;;;6.50;58.80;;;;;;6124175;23;20012;-57
2021/12/12 01:16:47;;;;;;;13.32;4.22;;;6.50;58.80;;;;;;6112245;23;20002;-54
2021/12/12 01:19:20;;;;;;;13.18;4.88;;;6.50;58.80;;;;;;6123793;23;20364;-55
2021/12/12 01:21:50;;;;;;;11.82;4.80;;;6.50;58.80;;;;;;6125097;23;20056;-54
2021/12/12 01:24:23;;;;;;;17.10;4.90;;;6.50;58.90;;;;;;6115610;23;19998;-55
2021/12/12 01:26:50;;;;;;;12.05;4.60;;;6.50;58.90;;;;;;6116207;23;20050;-55
2021/12/12 01:29:16;;;;;;;13.05;4.75;;;6.50;58.90;;;;;;6114505;23;19998;-55
2021/12/12 01:31:48;;;;;;;14.02;5.25;;;6.50;58.90;;;;;;6112097;23;20323;-55
2021/12/12 01:34:34;;;;;;;13.70;5.03;;;6.60;58.90;;;;;;6116531;23;19998;-54
2021/12/12 01:37:36;;;;;;;;;;;;;;;;;;;;;
2021/12/12 01:39:53;;;;;;;15.02;4.68;;;6.50;58.90;;;;;;6123075;23;20436;-54
2021/12/12 01:42:35;;;;;;;14.35;4.90;;;6.60;58.90;;;;;;6115911;23;20009;-55
2021/12/12 01:45:25;;;;;;;12.68;4.70;;;6.60;59.00;;;;;;6113152;23;20001;-55
2021/12/12 01:48:00;;;;;;;14.20;5.28;;;6.60;59.00;;;;;;6121970;23;20002;-55
2021/12/12 01:50:37;;;;;;;13.18;5.25;;;6.50;58.90;;;;;;6121430;23;20002;-56
2021/12/12 01:53:07;;;;;;;13.63;5.20;;;6.60;59.00;;;;;;6115300;23;20014;-53
2021/12/12 01:55:48;;;;;;;14.90;6.32;;;6.60;59.00;;;;;;6115391;23;20359;-55
2021/12/12 01:58:18;;;;;;;22.73;5.68;;;6.60;59.10;;;;;;6121098;23;20005;-53
2021/12/12 02:00:54;;;;;;;18.42;5.97;;;6.50;59.00;;;;;;6110703;23;20036;-54
2021/12/12 02:03:25;;;;;;;11.23;5.25;;;6.50;59.10;;;;;;6125121;23;20005;-55
2021/12/12 02:05:53;;;;;;;13.65;6.03;;;6.50;59.10;;;;;;6126141;23;20049;-56
2021/12/12 02:08:20;;;;;;;17.17;6.00;;;6.50;59.10;;;;;;6110356;23;20006;-57
2021/12/12 02:10:54;;;;;;;14.63;5.22;;;6.50;59.10;;;;;;6114450;23;20017;-55
2021/12/12 02:13:24;;;;;;;14.32;5.85;;;6.40;59.10;;;;;;6125729;23;20424;-55
2021/12/12 02:15:53;;;;;;;15.43;5.45;;;6.40;59.10;;;;;;6111977;23;20431;-57
2021/12/12 02:18:30;;;;;;;14.15;5.65;;;6.40;59.20;;;;;;6112326;23;20017;-56
2021/12/12 02:21:20;;;;;;;18.70;6.47;;;6.50;59.30;;;;;;6113716;23;20014;-57
2021/12/12 02:24:37;;;;;;;18.90;5.45;;;6.40;59.40;;;;;;6116691;23;20009;-55
2021/12/12 02:35:37;;;;;;;13.52;5.43;;;6.50;59.60;;;;;;6124844;23;20032;-53
2021/12/12 02:38:05;;;;;;;15.05;5.65;;;6.50;59.60;;;;;;6110707;23;20010;-53
2021/12/12 02:40:39;;;;;;;17.23;5.40;;;6.50;59.60;;;;;;6112021;23;20014;-55
2021/12/12 02:43:07;;;;;;;17.80;6.22;;;6.50;59.70;;;;;;6125160;23;20018;-57
2021/12/12 02:45:35;;;;;;;18.08;5.78;;;6.50;59.70;;;;;;6112211;23;20006;-56
2021/12/12 02:48:05;;;;;;;19.83;5.68;;;6.50;59.70;;;;;;6113222;23;20009;-55
2021/12/12 02:50:38;;;;;;;13.82;5.18;;;6.50;59.70;;;;;;6114198;23;20010;-55
2021/12/12 02:53:14;;;;;;;21.65;5.50;;;6.50;59.70;;;;;;6125866;23;20365;-55
2021/12/12 02:55:46;;;;;;;16.88;5.13;;;6.60;59.80;;;;;;6124997;23;19998;-56
2021/12/12 02:58:17;;;;;;;18.25;5.55;;;6.60;59.70;;;;;;6112267;23;20416;-55
2021/12/12 03:00:52;;;;;;;12.90;5.32;;;6.60;59.70;;;;;;6113603;23;20283;-57
2021/12/12 03:03:19;;;;;;;15.63;5.05;;;6.60;59.80;;;;;;6123291;23;20005;-56
2021/12/12 03:05:47;;;;;;;13.57;5.50;;;6.60;59.80;;;;;;6114810;23;20009;-57
2021/12/12 03:08:14;;;;;;;16.15;5.40;;;6.70;59.80;;;;;;6114538;23;20022;-55
2021/12/12 03:10:43;;;;;;;15.40;5.63;;;6.70;59.80;;;;;;6114381;23;20006;-55
2021/12/12 03:13:11;;;;;;;16.10;5.47;;;6.70;59.80;;;;;;6114856;23;20002;-55
2021/12/12 03:15:39;;;;;;;12.73;4.93;;;6.70;59.80;;;;;;6113519;23;20006;-56
2021/12/12 03:18:13;;;;;;;10.93;5.47;;;6.70;59.90;;;;;;6111473;23;19998;-56
2021/12/12 03:20:41;;;;;;;;;;;6.70;59.90;;;;;;6124712;23;20002;-57
2021/12/12 03:23:10;;;;;;;16.15;5.28;;;6.80;60.00;;;;;;6115575;23;19912;-57
2021/12/12 03:25:39;;;;;;;12.68;5.10;;;6.80;59.80;;;;;;6114808;23;20005;-56
2021/12/12 03:28:08;;;;;;;15.77;6.47;;;6.80;59.90;;;;;;6114549;23;20300;-57
2021/12/12 03:30:36;;;;;;;18.23;5.70;;;6.80;59.90;;;;;;6112592;23;20017;-57
2021/12/12 03:33:02;;;;;;;21.88;6.07;;;6.80;59.90;;;;;;6113947;23;20006;-57
2021/12/12 03:35:29;;;;;;;15.95;6.43;;;6.80;59.90;;;;;;6112497;23;20432;-57
2021/12/12 03:37:56;;;;;;;16.90;5.93;;;6.80;59.90;;;;;;6112568;23;20002;-55
2021/12/12 03:40:29;;;;;;;15.25;6.32;;;6.90;60.00;;;;;;6112580;23;20014;-55
2021/12/12 03:42:58;;;;;;;15.38;5.90;;;6.90;60.00;;;;;;6114868;23;20002;-53
2021/12/12 03:45:25;;;;;;;20.27;6.25;;;6.90;60.00;;;;;;6114576;23;20010;-55
2021/12/12 03:47:56;;;;;;;17.25;6.38;;;6.90;60.70;;;;;;6112173;23;20002;-55
2021/12/12 03:50:28;;;;;;;17.55;5.72;;;6.90;60.00;;;;;;6123395;23;20017;-54
2021/12/12 03:52:54;;;;;;;16.58;6.10;;;6.90;60.10;;;;;;6123997;23;20010;-56
2021/12/12 03:55:23;;;;;;;15.85;6.15;;;6.90;60.00;;;;;;6112894;23;19998;-53
2021/12/12 03:57:49;;;;;;;15.40;6.38;;;7.00;60.10;;;;;;6113303;23;20010;-56
2021/12/12 04:00:26;;;;;;;14.43;6.47;;;7.00;60.10;;;;;;6112283;23;20006;-54
2021/12/12 04:02:54;;;;;;;17.23;5.93;;;7.00;60.10;;;;;;6113603;23;20017;-54
2021/12/12 04:05:21;;;;;;;14.45;6.00;;;7.00;60.10;;;;;;6114619;23;20002;-55
2021/12/12 04:07:48;;;;;;;19.23;6.15;;;7.00;60.10;;;;;;6114349;23;20025;-55
2021/12/12 04:10:19;;;;;;;16.65;6.75;;;7.00;60.10;;;;;;6113992;23;20005;-55
2021/12/12 04:12:47;;;;;;;14.15;5.82;;;7.00;60.10;;;;;;6124871;23;20006;-54
2021/12/12 04:15:14;;;;;;;16.30;6.63;;;7.00;60.10;;;;;;6113266;23;20002;-55
2021/12/12 04:17:41;;;;;;;19.35;5.97;;;7.10;60.20;;;;;;6114452;23;20006;-57
2021/12/12 04:20:22;;;;;;;16.63;6.57;;;7.10;60.30;;;;;;6114511;23;20284;-55
2021/12/12 04:22:48;;;;;;;17.00;6.20;;;7.10;60.30;;;;;;6126865;23;20020;-57
2021/12/12 04:25:15;;;;;;;16.88;6.43;;;7.10;60.30;;;;;;6117162;23;19998;-57
2021/12/12 04:27:42;;;;;;;13.38;6.20;;;7.10;60.30;;;;;;6115514;23;20309;-55
2021/12/12 04:30:11;;;;;;;20.77;6.70;;;7.10;60.30;;;;;;6112965;23;20010;-53
2021/12/12 04:32:38;;;;;;;17.30;6.13;;;7.10;61.00;;;;;;6115337;23;20321;-55
2021/12/12 04:35:28;;;;;;;20.63;6.45;;;7.10;60.30;;;;;;6115389;23;20006;-55
2021/12/12 04:37:57;;;;;;;19.20;6.65;;;7.20;60.40;;;;;;6113935;23;20013;-55
2021/12/12 04:40:27;;;;;;;15.70;6.30;;;7.20;60.30;;;;;;6114700;23;20006;-57
2021/12/12 04:42:55;;;;;;;16.45;5.97;;;7.20;60.30;;;;;;6117034;23;19998;-56
2021/12/12 04:45:30;;;;;;;18.08;6.63;;;7.20;60.30;;;;;;6116517;23;19998;-55
2021/12/12 04:51:26;;;;;;;15.57;5.80;;;7.20;60.30;;;;;;6126486;23;20017;-55
2021/12/12 04:54:03;;;;;;;15.75;5.88;;;7.30;60.40;;;;;;6126613;23;20006;-56
2021/12/12 04:56:38;;;;;;;15.45;6.32;;;7.30;60.40;;;;;;6126252;23;20331;-57
2021/12/12 04:59:27;;;;;;;13.93;5.60;;;7.30;60.40;;;;;;6124627;23;20017;-55
2021/12/12 05:02:13;;;;;;;14.35;6.03;;;7.30;60.50;;;;;;6114867;23;20025;-55
2021/12/12 05:04:52;;;;;;;15.85;5.72;;;7.30;60.50;;;;;;6116248;23;20006;-55
2021/12/12 05:07:50;;;;;;;17.42;6.25;;;7.30;60.40;;;;;;6113790;23;20033;-51
2021/12/12 05:10:31;;;;;;;15.15;6.70;;;7.40;60.50;;;;;;6093615;23;20010;-56
2021/12/12 05:13:15;;;;;;;24.13;10.02;;;7.40;60.50;;;;;;6125820;23;19997;-55
2021/12/12 05:15:45;;;;;;;24.95;8.45;;;7.40;60.40;;;;;;6111908;23;20005;-53
2021/12/12 05:18:27;;;;;;;14.20;6.53;;;7.40;60.50;;;;;;6109192;23;20002;-56
2021/12/12 05:20:59;;;;;;;19.20;5.70;;;7.40;60.50;;;;;;6115354;23;20024;-50
2021/12/12 05:23:28;;;;;;;11.95;5.78;;;7.40;60.50;;;;;;6126258;23;20332;-53
2021/12/12 05:26:05;;;;;;;12.32;6.20;;;7.40;60.50;;;;;;6113925;23;20339;-54
2021/12/12 05:28:37;;;;;;;14.63;5.88;;;7.40;60.60;;;;;;6122727;23;20009;-54
2021/12/12 05:31:08;;;;;;;10.20;5.63;;;7.50;60.60;;;;;;6122884;23;20013;-56
2021/12/12 05:33:34;;;;;;;17.63;5.65;;;7.50;60.70;;;;;;6114353;23;20024;-56
2021/12/12 05:36:01;;;;;;;35.40;14.00;;;7.50;60.70;;;;;;6116417;23;20196;-55
2021/12/12 05:38:29;;;;;;;74.60;31.98;;;7.50;60.80;;;;;;6114056;23;20010;-53
2021/12/12 05:40:55;;;;;;;28.60;10.40;;;7.50;60.80;;;;;;6114939;23;20181;-55
2021/12/12 05:43:22;;;;;;;19.65;7.57;;;7.60;60.90;;;;;;6115697;23;20193;-55
2021/12/12 05:45:51;;;;;;;22.80;6.35;;;7.60;60.90;;;;;;6115227;23;20188;-55
2021/12/12 05:48:19;;;;;;;16.08;6.65;;;7.60;60.90;;;;;;6113648;23;20009;-55
2021/12/12 05:50:46;;;;;;;14.45;5.68;;;7.60;60.90;;;;;;6115914;23;20428;-53
2021/12/12 05:53:14;;;;;;;16.30;6.50;;;7.60;60.90;;;;;;6115699;23;20313;-54
2021/12/12 05:55:41;;;;;;;16.90;6.03;;;7.60;61.00;;;;;;6115519;23;20009;-53
2021/12/12 05:58:11;;;;;;;12.95;6.05;;;7.60;61.00;;;;;;6114673;23;20009;-55
2021/12/12 06:00:43;;;;;;;15.07;6.10;;;7.70;61.00;;;;;;6111640;23;20014;-56
2021/12/12 06:03:12;;;;;;;13.38;5.93;;;7.70;61.00;;;;;;6125002;23;20002;-55
2021/12/12 06:05:40;;;;;;;17.85;5.55;;;7.70;61.00;;;;;;6114891;23;20002;-56
2021/12/12 06:08:08;;;;;;;18.95;6.28;;;7.70;61.00;;;;;;6109791;23;20013;-55
2021/12/12 06:10:37;;;;;;;12.38;5.28;;;7.70;61.10;;;;;;6112953;23;20200;-55
2021/12/12 06:13:09;;;;;;;14.13;5.65;;;7.70;61.10;;;;;;6116418;23;20436;-53
2021/12/12 06:15:36;;;;;;;15.02;5.15;;;7.70;61.20;;;;;;6115452;23;20010;-55
2021/12/12 06:18:02;;;;;;;17.85;5.18;;;7.80;61.30;;;;;;6114268;23;20001;-55
2021/12/12 06:20:30;;;;;;;16.15;5.28;;;7.80;61.40;;;;;;6114475;23;20014;-56
2021/12/12 06:22:56;;;;;;;20.20;5.68;;;7.80;61.50;;;;;;6115802;23;20009;-55
2021/12/12 06:25:24;;;;;;;13.32;4.85;;;7.80;61.60;;;;;;6115934;23;20462;-53
2021/12/12 06:27:51;;;;;;;11.82;4.53;;;7.80;61.70;;;;;;6112811;23;20013;-57
2021/12/12 06:30:20;;;;;;;18.30;4.97;;;7.90;61.90;;;;;;6112652;23;20319;-57
2021/12/12 06:32:48;;;;;;;76.22;26.98;;;7.90;62.00;;;;;;6112373;23;20174;-55
2021/12/12 06:35:15;;;;;;;28.10;10.60;;;7.90;62.10;;;;;;6111324;23;20013;-55
2021/12/12 06:37:43;;;;;;;18.38;6.38;;;7.90;62.20;;;;;;6110280;23;20006;-55
2021/12/12 06:40:14;;;;;;;18.20;5.90;;;8.00;62.40;;;;;;6114423;23;20009;-54
2021/12/12 06:42:41;;;;;;;17.83;4.93;;;8.00;62.50;;;;;;6124850;23;20466;-53
2021/12/12 06:45:12;;;;;;;19.52;4.82;;;8.00;62.60;;;;;;6113693;23;19998;-55
2021/12/12 06:47:38;;;;;;;15.38;4.68;;;8.00;62.70;;;;;;6112608;23;20423;-57
2021/12/12 06:50:07;;;;;;;15.88;5.00;;;8.00;62.70;;;;;;6115144;23;20002;-54
2021/12/12 06:52:35;;;;;;;13.50;5.05;;;8.00;62.70;;;;;;6116013;23;19997;-55
2021/12/12 06:55:03;;;;;;;15.90;5.07;;;8.00;62.70;;;;;;6113757;23;20025;-56
2021/12/12 06:57:29;;;;;;;14.27;4.45;;;8.00;62.80;;;;;;6114603;23;20017;-54
2021/12/12 06:59:56;;;;;;;12.52;4.40;;;8.00;62.90;;;;;;6103961;23;20455;-54
2021/12/12 07:02:23;;;;;;;15.30;4.45;;;8.10;63.10;;;;;;6120739;23;20021;-55
2021/12/12 07:04:51;;;;;;;14.00;4.43;;;8.10;63.20;;;;;;6112849;23;19998;-56
2021/12/12 07:07:17;;;;;;;13.80;4.30;;;8.10;63.30;;;;;;6113300;23;19998;-57
2021/12/12 07:09:46;;;;;;;13.75;4.00;;;8.10;63.40;;;;;;6113839;23;20002;-52
2021/12/12 07:12:15;;;;;;;12.70;4.05;;;8.20;63.60;;;;;;6111153;23;20013;-55
2021/12/12 07:14:42;;;;;;;13.30;3.67;;;8.20;63.50;;;;;;6136584;23;20184;-54
2021/12/12 07:17:10;;;;;;;13.38;3.97;;;8.30;63.40;;;;;;6110868;23;20442;-55
2021/12/12 07:19:37;;;;;;;12.68;3.90;;;8.30;63.30;;;;;;6114651;23;20006;-56
2021/12/12 07:22:04;;;;;;;11.00;4.00;;;8.40;63.30;;;;;;6115649;23;20002;-54
2021/12/12 07:24:31;;;;;;;11.20;3.60;;;8.40;63.20;;;;;;6113370;23;20428;-56
2021/12/12 07:26:58;;;;;;;13.35;3.90;;;8.40;63.10;;;;;;6114256;23;20006;-55
2021/12/12 07:29:27;;;;;;;11.40;3.50;;;8.40;63.00;;;;;;6113919;23;20006;-55
2021/12/12 07:31:53;;;;;;;14.48;3.97;;;8.50;63.10;;;;;;6113078;23;20009;-55
2021/12/12 07:34:20;;;;;;;11.63;3.42;;;8.50;63.00;;;;;;6116043;23;20005;-53
2021/12/12 07:36:50;;;;;;;9.05;2.95;;;8.50;63.70;;;;;;6115216;23;20737;-55
2021/12/12 07:39:22;;;;;;;11.80;3.47;;;8.50;63.00;;;;;;6112963;23;20002;-55
2021/12/12 07:41:51;;;;;;;11.27;3.30;;;8.50;63.00;;;;;;6123449;23;20006;-52
2021/12/12 07:44:21;;;;;;;6.82;2.80;;;8.50;63.10;;;;;;6114577;23;20013;-56
2021/12/12 07:46:51;;;;;;;9.82;2.80;;;8.50;63.10;;;;;;6121831;23;19994;-55
2021/12/12 07:49:23;;;;;;;13.57;2.95;;;8.50;63.20;;;;;;6111572;23;20010;-52
2021/12/12 07:51:51;;;;;;;7.28;2.40;;;8.60;63.30;;;;;;6114967;23;20010;-52
2021/12/12 07:54:18;;;;;;;7.75;2.40;;;8.60;63.30;;;;;;6116517;23;20001;-55
2021/12/12 07:56:45;;;;;;;5.50;2.17;;;8.60;63.30;;;;;;6112764;23;20010;-53
2021/12/12 07:59:13;;;;;;;6.10;2.53;;;8.60;63.40;;;;;;6114577;23;20002;-53
2021/12/12 08:01:45;;;;;;;7.40;2.50;;;8.60;63.40;;;;;;6111483;23;20372;-54
2021/12/12 08:04:12;;;;;;;63.45;24.20;;;8.60;63.50;;;;;;6124792;23;19994;-53
2021/12/12 08:06:40;;;;;;;11.60;4.30;;;8.60;63.50;;;;;;6114258;23;19998;-56
2021/12/12 08:09:08;;;;;;;7.15;2.83;;;8.60;63.60;;;;;;6114661;23;20017;-54
2021/12/12 08:11:35;;;;;;;5.50;2.25;;;8.60;63.70;;;;;;6112404;23;20006;-53
2021/12/12 08:14:07;;;;;;;5.68;1.50;;;8.60;63.80;;;;;;6115617;23;20001;-53
2021/12/12 08:16:34;;;;;;;4.10;1.70;;;8.60;63.90;;;;;;6122701;23;20025;-52
2021/12/12 08:19:00;;;;;;;4.85;1.75;;;8.70;64.00;;;;;;6116149;23;20420;-53
2021/12/12 08:21:29;;;;;;;6.50;1.67;;;8.70;64.10;;;;;;6137655;23;20010;-55
2021/12/12 08:23:59;;;;;;;4.18;1.50;;;8.70;64.20;;;;;;6115464;23;20006;-53
2021/12/12 08:26:26;;;;;;;5.47;1.67;;;8.70;64.20;;;;;;6114925;23;20273;-53
2021/12/12 08:28:52;;;;;;;4.43;1.48;;;8.70;64.30;;;;;;6114035;23;20428;-53
2021/12/12 08:31:19;;;;;;;5.90;1.85;;;8.70;64.30;;;;;;6113840;23;20005;-55
2021/12/12 08:33:45;;;;;;;3.95;1.50;;;8.70;64.40;;;;;;6114285;23;20010;-54
2021/12/12 08:36:15;;;;;;;5.03;1.58;;;8.80;64.60;;;;;;6116549;23;20002;-53
2021/12/12 08:38:41;;;;;;;3.05;1.30;;;8.80;64.80;;;;;;6114033;23;20275;-53
2021/12/12 08:41:08;;;;;;;3.92;1.30;;;8.80;64.80;;;;;;6113912;23;20006;-55
2021/12/12 08:43:35;;;;;;;4.70;1.48;;;8.80;64.80;;;;;;6110835;23;20014;-55
2021/12/12 08:46:09;;;;;;;5.15;1.70;;;8.80;64.90;;;;;;6110724;23;20033;-53
2021/12/12 08:48:45;;;;;;;6.55;1.20;;;8.80;64.90;;;;;;6126117;23;20017;-55
2021/12/12 08:51:19;;;;;;;3.40;1.55;;;8.80;64.90;;;;;;6126333;23;19998;-56
2021/12/12 08:53:50;;;;;;;3.92;1.65;;;8.90;65.00;;;;;;6125752;23;20009;-55
2021/12/12 08:56:30;;;;;;;6.53;1.33;;;8.90;65.00;;;;;;6116655;23;20009;-54
2021/12/12 08:58:59;;;;;;;2.78;1.00;;;8.90;64.90;;;;;;6114404;23;20013;-54
2021/12/12 09:01:25;;;;;;;3.17;0.93;;;8.90;64.90;;;;;;6114853;23;20277;-55
2021/12/12 09:04:01;;;;;;;2.33;0.77;;;9.00;65.00;;;;;;6115397;23;20347;-55
2021/12/12 09:06:37;;;;;;;2.17;1.10;;;9.00;65.10;;;;;;6116043;23;20002;-52
2021/12/12 09:09:12;;;;;;;2.08;0.93;;;9.00;65.20;;;;;;6117810;23;20014;-55
2021/12/12 09:11:45;;;;;;;2.28;1.20;;;9.00;65.10;;;;;;6125860;23;20006;-55
2021/12/12 09:14:20;;;;;;;4.43;1.20;;;9.10;65.20;;;;;;6116691;23;20432;-54
2021/12/12 09:16:55;;;;;;;2.60;1.02;;;9.10;65.30;;;;;;6114840;23;20005;-55
2021/12/12 09:19:30;;;;;;;1.45;0.90;;;9.10;65.20;;;;;;6113725;23;20312;-52
2021/12/12 09:22:03;;;;;;;3.83;1.17;;;9.20;65.30;;;;;;6125786;23;20431;-54
2021/12/12 09:24:46;;;;;;;5.63;1.10;;;9.20;65.10;;;;;;6125918;23;19998;-56
2021/12/12 09:27:31;;;;;;;4.13;0.90;;;9.20;65.10;;;;;;6115090;23;20006;-54
2021/12/12 09:30:10;;;;;;;3.42;1.20;;;9.20;65.10;;;;;;6115686;23;20009;-54
2021/12/12 09:32:51;;;;;;;4.30;1.08;;;9.30;65.10;;;;;;6124782;23;20320;-55
2021/12/12 09:35:17;;;;;;;2.60;1.27;;;9.30;65.10;;;;;;6126376;23;20002;-56
2021/12/12 09:38:10;;;;;;;5.22;1.50;;;9.30;65.10;;;;;;6115186;23;20010;-54
2021/12/12 09:41:11;;;;;;;1.80;1.05;;;9.30;65.10;;;;;;6125313;23;20324;-54
2021/12/12 09:44:14;;;;;;;5.80;1.67;;;9.30;65.10;;;;;;6113403;23;20371;-53
2021/12/12 09:47:30;;;;;;;2.75;1.20;;;9.40;65.10;;;;;;6113663;23;20006;-54
2021/12/12 09:53:30;;;;;;;2.88;1.40;;;9.40;64.80;;;;;;6125651;23;20009;-55
2021/12/12 09:56:07;;;;;;;3.25;1.17;;;9.40;64.90;;;;;;6114835;23;20013;-54
2021/12/12 09:58:46;;;;;;;3.65;0.90;;;9.50;65.10;;;;;;6125651;23;20458;-55
2021/12/12 10:01:18;;;;;;;2.47;1.10;;;9.50;65.20;;;;;;6121553;23;20001;-57
2021/12/12 10:04:02;;;;;;;2.80;1.27;;;9.50;65.20;;;;;;6124588;23;20002;-54
2021/12/12 10:06:31;;;;;;;;;;;9.50;65.30;;;;;;6116848;23;20443;-55
2021/12/12 10:09:10;;;;;;;2.17;1.05;;;9.60;65.30;;;;;;6114315;23;19912;-54
2021/12/12 10:11:39;;;;;;;3.03;1.60;;;9.60;65.00;;;;;;6114960;23;20013;-56
2021/12/12 10:14:14;;;;;;;3.65;1.63;;;9.60;64.90;;;;;;6116012;23;20025;-54
2021/12/12 10:17:04;;;;;;;3.25;1.52;;;9.60;64.90;;;;;;6114074;23;20012;-53
2021/12/12 10:19:41;;;;;;;8.40;1.55;;;9.70;65.60;;;;;;6115276;23;20002;-56
2021/12/12 10:22:45;;;;;;;4.07;1.63;;;9.70;64.90;;;;;;6123769;23;20009;-55
2021/12/12 10:25:16;;;;;;;4.00;1.67;;;9.70;64.80;;;;;;6114306;23;20009;-56
2021/12/12 10:28:17;;;;;;;4.15;1.88;;;9.70;64.70;;;;;;6124831;23;20328;-55
2021/12/12 10:30:53;;;;;;;4.07;1.80;;;9.70;64.80;;;;;;6123742;23;20013;-50
2021/12/12 10:33:39;;;;;;;6.72;1.70;;;9.80;64.80;;;;;;6114271;23;20439;-55
2021/12/12 10:36:10;;;;;;;4.03;1.60;;;9.80;64.70;;;;;;6115482;23;20016;-54
2021/12/12 10:38:45;;;;;;;2.35;1.40;;;9.80;64.60;;;;;;6115413;23;20331;-53
2021/12/12 10:41:21;;;;;;;7.55;1.77;;;9.80;64.60;;;;;;6124446;23;20006;-53
2021/12/12 10:43:56;;;;;;;3.65;1.38;;;9.80;64.50;;;;;;6123339;23;20009;-55
2021/12/12 10:46:33;;;;;;;6.32;2.65;;;9.80;64.50;;;;;;6122922;23;20005;-53
2021/12/12 10:49:17;;;;;;;10.40;6.50;;;9.80;64.50;;;;;;6114167;23;20005;-53
2021/12/12 10:51:58;;;;;;;6.88;3.20;;;9.90;64.60;;;;;;6114226;23;20005;-52
2021/12/12 10:54:32;;;;;;;2.70;1.98;;;9.90;64.60;;;;;;6125125;23;20051;-54
2021/12/12 10:57:05;;;;;;;5.47;2.28;;;9.90;64.50;;;;;;6125079;23;20006;-54
2021/12/12 10:59:55;;;;;;;3.30;2.60;;;10.00;64.50;;;;;;6124846;23;20403;-51
2021/12/12 11:02:29;;;;;;;4.32;2.08;;;10.00;64.40;;;;;;6111321;23;20014;-57
2021/12/12 11:05:21;;;;;;;16.17;9.27;;;10.00;64.30;;;;;;6113932;23;20026;-55
2021/12/12 11:07:53;;;;;;;11.75;6.68;;;10.00;64.30;;;;;;6116984;23;20018;-54
2021/12/12 11:10:27;;;;;;;33.15;16.48;;;10.10;64.30;;;;;;6123642;23;20584;-51
2021/12/12 11:13:03;;;;;;;13.57;7.53;;;10.10;64.20;;;;;;6123447;23;20006;-56
2021/12/12 11:15:34;;;;;;;14.45;7.90;;;10.10;64.20;;;;;;6125236;23;20002;-52
2021/12/12 11:18:06;;;;;;;9.68;4.70;;;10.10;64.20;;;;;;6113330;23;20261;-55
2021/12/12 11:20:50;;;;;;;7.57;3.00;;;10.10;64.20;;;;;;6123623;23;20005;-53
2021/12/12 11:23:30;;;;;;;5.90;2.30;;;10.10;64.30;;;;;;6124244;23;20188;-55
2021/12/12 11:26:03;;;;;;;6.90;2.65;;;10.10;64.10;;;;;;6124809;23;20006;-54
2021/12/12 11:28:32;;;;;;;10.48;3.65;;;10.20;64.10;;;;;;6114502;23;19994;-56
2021/12/12 11:31:08;;;;;;;6.63;2.33;;;10.20;64.10;;;;;;6114597;23;20487;-53
2021/12/12 11:33:36;;;;;;;6.65;2.10;;;10.20;64.00;;;;;;6115382;23;20014;-51
2021/12/12 11:36:05;;;;;;;3.42;1.88;;;10.20;64.10;;;;;;6114053;23;20320;-55
2021/12/12 11:38:38;;;;;;;4.05;2.10;;;10.20;64.00;;;;;;6114179;23;19998;-57
2021/12/12 11:41:08;;;;;;;2.63;1.50;;;10.30;64.00;;;;;;6111774;23;20009;-55
2021/12/12 11:43:51;;;;;;;4.65;2.30;;;10.30;63.90;;;;;;6110840;23;20297;-55
2021/12/12 11:46:25;;;;;;;4.45;2.97;;;10.30;63.80;;;;;;6111672;23;20447;-54
2021/12/12 11:49:03;;;;;;;11.27;7.85;;;10.30;63.70;;;;;;6121591;23;20002;-53
2021/12/12 11:51:41;;;;;;;8.10;5.78;;;10.30;63.70;;;;;;6124517;23;20021;-52
2021/12/12 11:54:17;;;;;;;7.40;5.03;;;10.30;63.70;;;;;;6124350;23;20014;-53
2021/12/12 11:56:58;;;;;;;60.70;26.40;;;10.30;63.80;;;;;;6122624;23;20439;-55
2021/12/12 11:59:37;;;;;;;15.75;6.63;;;10.30;63.80;;;;;;6111500;23;20010;-52
2021/12/12 12:02:23;;;;;;;14.15;5.40;;;10.30;63.90;;;;;;6110448;23;20002;-54
2021/12/12 12:05:14;;;;;;;7.00;3.10;;;10.40;63.80;;;;;;6115406;23;20022;-52
2021/12/12 12:07:59;;;;;;;3.63;2.42;;;10.40;63.80;;;;;;6113969;23;20336;-54
2021/12/12 12:11:11;;;;;;;2.83;1.83;;;10.40;63.70;;;;;;6115197;23;20005;-54
2021/12/12 12:13:53;;;;;;;2.72;1.60;;;10.40;63.70;;;;;;6113950;23;20021;-53
2021/12/12 12:16:39;;;;;;;40.03;22.40;;;10.40;63.70;;;;;;6112985;23;20010;-52
2021/12/12 12:19:24;;;;;;;29.35;17.50;;;10.40;63.60;;;;;;6124241;23;19994;-52
2021/12/12 12:22:10;;;;;;;16.67;9.45;;;10.40;63.70;;;;;;6114519;23;20335;-52
2021/12/12 12:24:57;;;;;;;10.18;6.30;;;10.50;63.70;;;;;;6124842;23;20917;-54
2021/12/12 12:27:46;;;;;;;7.75;5.10;;;10.50;63.70;;;;;;6124264;23;20005;-50
2021/12/12 12:30:30;;;;;;;8.43;5.20;;;10.50;63.70;;;;;;6124895;23;19994;-53
2021/12/12 12:33:25;;;;;;;12.70;6.93;;;10.50;63.70;;;;;;6113641;23;20010;-54
2021/12/12 12:36:12;;;;;;;11.77;6.95;;;10.60;63.70;;;;;;6113335;23;20010;-52
2021/12/12 12:39:16;;;;;;;4.43;2.70;;;10.60;63.60;;;;;;6113764;23;20435;-53
2021/12/12 12:42:33;;;;;;;8.05;3.17;;;10.60;63.50;;;;;;6114795;23;20010;-53
2021/12/12 12:45:20;;;;;;;1.77;1.48;;;10.60;63.60;;;;;;6091482;23;20006;-54
2021/12/12 12:48:07;;;;;;;2.78;1.40;;;10.60;63.40;;;;;;6124282;23;20002;-54
2021/12/12 12:50:42;;;;;;;3.00;1.70;;;10.70;63.50;;;;;;6126252;23;20409;-55
2021/12/12 12:53:27;;;;;;;5.32;2.33;;;10.70;63.60;;;;;;6116934;23;20442;-54
2021/12/12 12:56:31;;;;;;;3.38;2.20;;;10.70;63.70;;;;;;6125432;23;20006;-55
2021/12/12 12:58:57;;;;;;;3.88;2.78;;;10.70;63.70;;;;;;6114755;23;20013;-53
2021/12/12 13:01:56;;;;;;;3.33;2.17;;;10.70;63.70;;;;;;6113824;23;20001;-56
2021/12/12 13:04:58;;;;;;;2.80;1.67;;;10.80;63.70;;;;;;6112942;23;20070;-55
2021/12/12 13:08:08;;;;;;;2.92;1.83;;;10.80;63.70;;;;;;6114813;23;20028;-54
2021/12/12 13:10:37;;;;;;;2.80;1.48;;;10.80;63.80;;;;;;6115606;23;20020;-53
2021/12/12 13:13:07;;;;;;;2.03;1.10;;;10.80;63.80;;;;;;6115591;23;20344;-55
2021/12/12 13:15:42;;;;;;;9.40;4.20;;;10.80;63.80;;;;;;6115260;23;20005;-55
2021/12/12 13:18:25;;;;;;;3.20;2.00;;;10.90;64.10;;;;;;6114147;23;20002;-54
2021/12/12 13:21:07;;;;;;;3.42;1.73;;;10.90;64.10;;;;;;6123748;23;20432;-55
2021/12/12 13:23:36;;;;;;;3.38;1.42;;;10.90;64.20;;;;;;6125980;23;20443;-55
2021/12/12 13:26:06;;;;;;;3.40;1.10;;;10.90;64.30;;;;;;6115930;23;20002;-54
2021/12/12 13:28:52;;;;;;;2.30;1.40;;;11.00;64.40;;;;;;6115186;23;19998;-54
2021/12/12 13:31:27;;;;;;;1.90;1.40;;;11.00;64.30;;;;;;6114557;23;19998;-54
2021/12/12 13:34:27;;;;;;;2.67;1.20;;;11.00;64.40;;;;;;6116609;23;20002;-54
2021/12/12 13:37:19;;;;;;;2.88;1.30;;;11.00;64.30;;;;;;6113431;23;20006;-54
2021/12/12 13:40:19;;;;;;;3.55;1.60;;;11.10;64.40;;;;;;6114225;23;20002;-53
2021/12/12 13:43:06;;;;;;;2.67;2.05;;;11.10;64.30;;;;;;6114178;23;20328;-56